createdAt,value
2019-04-04T00:01:57.902Z,67.80
2019-04-04T00:04:26.740Z,67.90
2019-04-04T00:06:57.699Z,68.40
2019-04-04T00:09:26.130Z,68.70
2019-04-04T00:11:54.942Z,68.90
2019-04-04T00:14:23.714Z,69.00
2019-04-04T00:16:52.521Z,69.00
2019-04-04T00:19:21.369Z,69.70
2019-04-04T00:21:50.136Z,69.50
2019-04-04T00:24:19.218Z,69.60
2019-04-04T00:26:48.076Z,69.50
2019-04-04T00:29:17.819Z,69.80
2019-04-04T00:31:49.518Z,69.60
2019-04-04T00:34:17.311Z,69.30
2019-04-04T00:36:46.092Z,69.70
2019-04-04T00:39:15.013Z,70.00
2019-04-04T00:41:44.942Z,69.90
2019-04-04T00:44:14.351Z,70.70
2019-04-04T00:46:43.122Z,70.80
2019-04-04T00:49:12.955Z,71.00
2019-04-04T00:51:41.735Z,71.10
2019-04-04T00:54:12.105Z,71.50
2019-04-04T00:56:41.098Z,71.70
2019-04-04T00:59:09.894Z,71.70
2019-04-04T01:01:38.691Z,72.00
2019-04-04T01:04:07.507Z,72.60
2019-04-04T01:06:36.286Z,72.70
2019-04-04T01:09:11.246Z,72.40
2019-04-04T01:11:37.170Z,72.90
2019-04-04T01:14:06.088Z,73.20
2019-04-04T01:16:34.969Z,73.70
2019-04-04T01:19:03.871Z,74.00
2019-04-04T01:21:32.717Z,73.60
2019-04-04T01:24:01.517Z,73.60
2019-04-04T01:26:30.282Z,73.80
2019-04-04T01:28:59.120Z,73.90
2019-04-04T01:31:27.907Z,74.20
2019-04-04T01:33:56.678Z,74.80
2019-04-04T01:36:25.964Z,75.10
2019-04-04T01:38:55.003Z,75.50
2019-04-04T01:41:23.942Z,76.00
2019-04-04T01:44:04.572Z,76.20
2019-04-04T01:46:23.334Z,76.10
2019-04-04T01:48:52.240Z,76.10
2019-04-04T01:51:21.030Z,76.60
2019-04-04T01:53:49.924Z,76.70
2019-04-04T01:56:18.807Z,76.40
2019-04-04T01:58:47.735Z,76.00
2019-04-04T02:01:17.063Z,75.90
2019-04-04T02:03:45.988Z,76.30
2019-04-04T02:06:14.878Z,76.70
2019-04-04T02:08:43.673Z,77.40
2019-04-04T02:11:12.505Z,76.30
2019-04-04T02:13:41.553Z,77.00
2019-04-04T02:16:10.444Z,76.90
2019-04-04T02:18:39.316Z,77.40
2019-04-04T02:21:08.186Z,78.20
2019-04-04T02:23:37.108Z,78.00
2019-04-04T02:26:05.911Z,78.80
2019-04-04T02:28:34.784Z,80.10
2019-04-04T02:31:05.287Z,80.80
2019-04-04T02:33:34.056Z,81.00
2019-04-04T02:36:02.914Z,81.10
2019-04-04T02:38:31.910Z,82.10
2019-04-04T02:41:00.732Z,83.00
2019-04-04T02:43:29.541Z,83.20
2019-04-04T02:45:58.370Z,83.30
2019-04-04T02:48:27.159Z,84.10
2019-04-04T02:50:56.073Z,84.20
2019-04-04T02:53:24.915Z,84.50
2019-04-04T02:55:53.761Z,85.80
2019-04-04T02:58:22.812Z,86.70
2019-04-04T03:00:51.605Z,86.60
2019-04-04T03:03:20.627Z,86.80
2019-04-04T03:05:51.916Z,87.00
2019-04-04T03:08:20.135Z,87.20
2019-04-04T03:10:49.456Z,86.80
2019-04-04T03:13:18.632Z,86.90
2019-04-04T03:15:48.289Z,87.10
2019-04-04T03:18:17.241Z,87.10
2019-04-04T03:20:49.228Z,86.50
2019-04-04T03:23:16.540Z,87.00
2019-04-04T03:25:47.300Z,87.80
2019-04-04T03:28:16.000Z,88.50
2019-04-04T03:31:04.284Z,89.10
2019-04-04T03:33:33.385Z,89.40
2019-04-04T03:36:02.281Z,89.30
2019-04-04T03:38:31.161Z,89.50
2019-04-04T03:41:00.227Z,89.40
2019-04-04T03:43:29.124Z,90.10
2019-04-04T03:46:01.396Z,90.10
2019-04-04T03:48:28.598Z,90.00
2019-04-04T03:50:57.897Z,90.20
2019-04-04T03:53:28.209Z,90.50
2019-04-04T03:55:59.930Z,90.40
2019-04-04T03:58:28.178Z,90.50
2019-04-04T04:00:57.785Z,90.80
2019-04-04T04:03:26.682Z,90.90
2019-04-04T04:05:55.480Z,91.30
2019-04-04T04:08:24.339Z,91.50
2019-04-04T04:10:53.172Z,91.60
2019-04-04T04:13:22.102Z,91.70
2019-04-04T04:15:51.036Z,91.80
2019-04-04T04:18:21.361Z,92.00
2019-04-04T04:20:50.623Z,92.00
2019-04-04T04:23:23.015Z,92.30
2019-04-04T04:25:50.162Z,92.40
2019-04-04T04:28:20.176Z,92.40
2019-04-04T04:30:49.478Z,92.20
2019-04-04T04:33:18.483Z,92.20
2019-04-04T04:35:47.465Z,92.30
2019-04-04T04:38:16.464Z,93.10
2019-04-04T04:40:47.321Z,93.30
2019-04-04T04:43:16.075Z,94.20
2019-04-04T04:45:45.249Z,94.30
2019-04-04T04:48:14.282Z,93.90
2019-04-04T04:50:43.225Z,93.90
2019-04-04T04:53:12.216Z,94.10
2019-04-04T04:55:41.247Z,94.10
2019-04-04T04:58:11.104Z,93.60
2019-04-04T05:00:40.293Z,94.40
2019-04-04T05:03:09.345Z,94.10
2019-04-04T05:05:38.168Z,94.00
2019-04-04T05:08:09.682Z,94.00
2019-04-04T05:10:37.467Z,94.00
2019-04-04T05:13:06.285Z,93.80
2019-04-04T05:15:35.048Z,94.10
2019-04-04T05:18:03.958Z,94.30
2019-04-04T05:20:32.795Z,94.50
2019-04-04T05:23:01.627Z,94.20
2019-04-04T05:25:31.264Z,94.40
2019-04-04T05:28:00.737Z,94.40
2019-04-04T05:30:29.763Z,94.50
2019-04-04T05:32:58.641Z,94.10
2019-04-04T05:35:27.603Z,94.50
2019-04-04T05:37:56.498Z,94.50
2019-04-04T05:40:25.526Z,94.50
2019-04-04T05:42:54.383Z,94.60
2019-04-04T05:45:23.225Z,94.30
2019-04-04T05:48:00.823Z,93.90
2019-04-04T05:50:29.666Z,94.30
2019-04-04T05:52:58.679Z,93.90
2019-04-04T05:55:27.581Z,93.70
2019-04-04T05:57:56.500Z,94.10
2019-04-04T06:00:27.297Z,94.10
2019-04-04T06:02:56.122Z,94.20
2019-04-04T06:05:26.996Z,94.10
2019-04-04T06:07:55.392Z,94.10
2019-04-04T06:13:07.021Z,94.00
2019-04-04T06:15:35.951Z,93.60
2019-04-04T06:18:04.798Z,94.00
2019-04-04T06:20:33.610Z,94.10
2019-04-04T06:23:02.473Z,94.30
2019-04-04T06:25:34.734Z,94.20
2019-04-04T06:28:01.990Z,93.70
2019-04-04T06:30:42.637Z,93.70
2019-04-04T06:33:03.935Z,93.80
2019-04-04T06:35:32.166Z,93.80
2019-04-04T06:38:01.091Z,93.70
2019-04-04T06:40:30.296Z,93.60
2019-04-04T06:42:59.906Z,92.80
2019-04-04T06:45:29.827Z,92.90
2019-04-04T06:47:59.035Z,92.70
2019-04-04T06:50:27.884Z,92.80
2019-04-04T06:52:56.872Z,92.30
2019-04-04T06:55:28.445Z,92.00
2019-04-04T06:57:56.587Z,92.10
2019-04-04T07:00:25.491Z,91.80
2019-04-04T07:02:56.106Z,91.50
2019-04-04T07:05:24.870Z,91.30
2019-04-04T07:07:53.654Z,90.80
2019-04-04T07:10:22.595Z,90.50
2019-04-04T07:12:51.500Z,90.70
2019-04-04T07:15:20.371Z,90.50
2019-04-04T07:17:49.226Z,90.50
2019-04-04T07:20:18.264Z,90.30
2019-04-04T07:22:47.154Z,90.20
2019-04-04T07:25:15.979Z,90.10
2019-04-04T07:27:45.341Z,90.00
2019-04-04T07:30:15.607Z,89.80
2019-04-04T07:32:44.722Z,89.00
2019-04-04T07:35:16.804Z,88.20
2019-04-04T07:37:44.418Z,88.20
2019-04-04T07:40:13.676Z,88.20
2019-04-04T07:42:42.523Z,87.20
2019-04-04T07:45:14.266Z,87.90
2019-04-04T07:47:42.293Z,87.20
2019-04-04T07:50:11.276Z,87.50
2019-04-04T07:52:40.271Z,86.80
2019-04-04T07:55:10.827Z,85.90
2019-04-04T07:57:39.877Z,86.40
2019-04-04T08:00:09.569Z,86.10
2019-04-04T08:02:38.382Z,85.60
2019-04-04T08:05:07.351Z,85.00
2019-04-04T08:07:36.230Z,84.00
2019-04-04T08:10:05.635Z,84.20
2019-04-04T08:12:34.445Z,83.80
2019-04-04T08:15:03.380Z,83.00
2019-04-04T08:17:32.503Z,83.70
2019-04-04T08:20:01.333Z,84.00
2019-04-04T08:22:30.286Z,83.10
2019-04-04T08:24:59.194Z,83.30
2019-04-04T08:27:28.058Z,83.70
2019-04-04T08:29:57.019Z,82.50
2019-04-04T08:32:25.982Z,82.90
2019-04-04T08:34:54.796Z,83.10
2019-04-04T08:37:23.905Z,83.30
2019-04-04T08:39:52.750Z,83.00
2019-04-04T08:42:21.601Z,83.60
2019-04-04T08:44:50.404Z,83.30
2019-04-04T08:47:19.214Z,82.40
2019-04-04T08:49:48.029Z,82.50
2019-04-04T08:52:20.536Z,82.60
2019-04-04T08:54:47.452Z,82.50
2019-04-04T08:57:16.368Z,80.80
2019-04-04T08:59:45.182Z,81.10
2019-04-04T09:02:14.035Z,80.60
2019-04-04T09:04:42.920Z,80.10
2019-04-04T09:07:11.693Z,79.20
2019-04-04T09:09:40.561Z,79.00
2019-04-04T09:12:09.382Z,78.60
2019-04-04T09:14:40.970Z,77.30
2019-04-04T09:17:08.928Z,77.70
2019-04-04T09:19:37.737Z,78.80
2019-04-04T09:22:06.741Z,78.40
2019-04-04T09:24:36.136Z,77.30
2019-04-04T09:27:05.412Z,76.00
2019-04-04T09:29:34.218Z,76.40
2019-04-04T09:32:03.110Z,75.60
2019-04-04T09:34:31.847Z,73.80
2019-04-04T09:37:00.723Z,74.00
2019-04-04T09:39:29.512Z,73.60
2019-04-04T09:41:58.380Z,74.10
2019-04-04T09:44:27.232Z,73.40
2019-04-04T09:47:05.272Z,72.40
2019-04-04T09:49:26.692Z,73.20
2019-04-04T09:51:55.521Z,72.70
2019-04-04T09:54:24.379Z,72.90
2019-04-04T09:56:53.269Z,72.00
2019-04-04T09:59:22.144Z,72.50
2019-04-04T10:01:51.056Z,70.40
2019-04-04T10:04:19.916Z,69.90
2019-04-04T10:06:48.835Z,69.30
2019-04-04T10:09:17.737Z,68.70
2019-04-04T10:11:46.631Z,67.10
2019-04-04T10:14:15.535Z,65.50
2019-04-04T10:16:44.447Z,64.70
2019-04-04T10:19:13.330Z,64.00
2019-04-04T10:21:42.131Z,62.30
2019-04-04T10:24:11.577Z,62.00
2019-04-04T10:26:40.389Z,61.70
2019-04-04T10:29:09.268Z,60.30
2019-04-04T10:31:38.240Z,59.20
2019-04-04T10:34:07.227Z,57.60
2019-04-04T10:36:36.065Z,55.30
2019-04-04T10:39:09.116Z,51.80
2019-04-04T10:41:37.906Z,49.80
2019-04-04T10:44:06.745Z,49.70
2019-04-04T10:46:35.579Z,50.30
2019-04-04T10:49:04.604Z,49.40
2019-04-04T10:51:33.479Z,46.00
2019-04-04T10:54:02.359Z,43.30
2019-04-04T10:56:31.147Z,42.40
2019-04-04T10:58:59.978Z,40.40
2019-04-04T11:01:28.788Z,40.00
2019-04-04T11:03:57.614Z,38.60
2019-04-04T11:06:26.672Z,37.60
2019-04-04T11:08:55.437Z,35.90
2019-04-04T11:11:24.220Z,35.10
2019-04-04T11:13:53.062Z,33.10
2019-04-04T11:16:30.028Z,34.00
2019-04-04T11:18:52.469Z,33.10
2019-04-04T11:21:21.263Z,33.20
2019-04-04T11:23:50.080Z,33.50
2019-04-04T11:26:18.996Z,33.00
2019-04-04T11:28:47.760Z,32.20
2019-04-04T11:31:16.707Z,31.60
2019-04-04T11:33:45.626Z,31.50
2019-04-04T11:36:14.410Z,32.70
2019-04-04T11:38:44.245Z,34.10
2019-04-04T11:41:13.357Z,34.20
2019-04-04T11:43:42.154Z,33.90
2019-04-04T11:46:10.948Z,33.50
2019-04-04T11:48:39.854Z,33.70
2019-04-04T11:51:08.798Z,32.80
2019-04-04T11:53:37.595Z,32.00
2019-04-04T11:56:06.622Z,32.50
2019-04-04T11:58:35.448Z,31.30
2019-04-04T12:01:09.324Z,29.80
2019-04-04T12:03:38.221Z,31.60
2019-04-04T12:06:06.979Z,31.50
2019-04-04T12:08:35.798Z,30.90
2019-04-04T12:11:04.806Z,35.30
2019-04-04T12:13:33.623Z,34.60
2019-04-04T12:16:02.525Z,35.00
2019-04-04T12:18:31.382Z,33.90
2019-04-04T12:21:00.338Z,33.50
2019-04-04T12:23:29.211Z,34.30
2019-04-04T12:25:57.978Z,32.60
2019-04-04T12:28:27.034Z,31.90
2019-04-04T12:30:55.877Z,30.50
2019-04-04T12:33:24.824Z,34.20
2019-04-04T12:35:53.664Z,34.20
2019-04-04T12:38:22.545Z,33.50
2019-04-04T12:40:51.543Z,31.00
2019-04-04T12:43:20.583Z,30.40
2019-04-04T12:45:52.818Z,29.80
2019-04-04T12:48:21.826Z,30.90
2019-04-04T12:50:50.641Z,29.80
2019-04-04T12:53:19.544Z,28.60
2019-04-04T12:55:48.538Z,30.00
2019-04-04T12:58:17.463Z,30.70
2019-04-04T13:00:46.370Z,29.90
2019-04-04T13:03:15.199Z,29.40
2019-04-04T13:05:44.087Z,28.60
2019-04-04T13:08:13.026Z,29.20
2019-04-04T13:10:41.835Z,28.50
2019-04-04T13:13:10.725Z,29.00
2019-04-04T13:15:39.554Z,29.20
2019-04-04T13:18:08.469Z,29.90
2019-04-04T13:20:37.437Z,28.60
2019-04-04T13:23:06.356Z,31.10
2019-04-04T13:25:35.175Z,33.10
2019-04-04T13:28:04.089Z,32.40
2019-04-04T13:30:33.084Z,30.60
2019-04-04T13:33:01.978Z,29.50
2019-04-04T13:35:30.750Z,28.60
2019-04-04T13:37:59.705Z,29.60
2019-04-04T13:40:28.594Z,29.20
2019-04-04T13:42:57.408Z,29.60
2019-04-04T13:45:26.188Z,29.30
2019-04-04T13:47:55.015Z,28.00
2019-04-04T13:50:23.795Z,28.50
2019-04-04T13:52:52.572Z,28.00
2019-04-04T13:55:21.388Z,26.20
2019-04-04T13:57:50.256Z,26.30
2019-04-04T14:00:19.353Z,27.30
2019-04-04T14:02:48.368Z,27.70
2019-04-04T14:05:17.509Z,27.50
2019-04-04T14:07:46.415Z,28.00
2019-04-04T14:10:18.637Z,27.50
2019-04-04T14:12:47.484Z,27.50
2019-04-04T14:15:16.675Z,28.00
2019-04-04T14:17:45.676Z,28.00
2019-04-04T14:20:14.784Z,27.90
2019-04-04T14:22:43.786Z,28.30
2019-04-04T14:25:12.735Z,28.50
2019-04-04T14:27:41.656Z,27.90
2019-04-04T14:30:11.528Z,28.60
2019-04-04T14:32:40.460Z,29.30
2019-04-04T14:35:09.927Z,28.90
2019-04-04T14:37:38.950Z,29.80
2019-04-04T14:40:08.525Z,31.90
2019-04-04T14:42:37.425Z,31.00
2019-04-04T14:45:07.152Z,29.20
2019-04-04T14:47:36.641Z,29.40
2019-04-04T14:50:06.016Z,28.90
2019-04-04T14:52:34.868Z,28.40
2019-04-04T14:55:03.956Z,29.00
2019-04-04T14:57:32.836Z,29.80
2019-04-04T15:00:01.652Z,31.40
2019-04-04T15:02:30.618Z,31.80
2019-04-04T15:04:59.527Z,32.20
2019-04-04T15:07:28.449Z,32.10
2019-04-04T15:09:57.423Z,31.60
2019-04-04T15:12:26.246Z,32.90
2019-04-04T15:14:55.174Z,33.50
2019-04-04T15:17:24.154Z,33.60
2019-04-04T15:19:52.994Z,32.30
2019-04-04T15:22:21.794Z,32.40
2019-04-04T15:24:50.707Z,34.60
2019-04-04T15:27:19.660Z,35.10
2019-04-04T15:29:48.615Z,34.80
2019-04-04T15:32:17.778Z,35.00
2019-04-04T15:34:46.619Z,35.40
2019-04-04T15:37:15.685Z,34.60
2019-04-04T15:39:44.530Z,34.30
2019-04-04T15:42:13.411Z,35.20
2019-04-04T15:44:42.259Z,35.10
2019-04-04T15:47:11.409Z,35.10
2019-04-04T15:49:40.263Z,35.00
2019-04-04T15:52:09.302Z,34.90
2019-04-04T15:54:38.144Z,35.00
2019-04-04T15:57:07.265Z,34.60
2019-04-04T15:59:36.327Z,34.70
2019-04-04T16:02:05.268Z,34.40
2019-04-04T16:04:35.565Z,34.20
2019-04-04T16:07:05.694Z,34.20
2019-04-04T16:09:34.727Z,34.30
2019-04-04T16:12:03.885Z,33.70
2019-04-04T16:14:36.121Z,33.90
2019-04-04T16:17:05.902Z,33.80
2019-04-04T16:19:35.261Z,34.00
2019-04-04T16:22:04.724Z,34.30
2019-04-04T16:24:33.861Z,34.60
2019-04-04T16:27:09.137Z,35.20
2019-04-04T16:29:38.755Z,36.00
2019-04-04T16:32:10.016Z,36.60
2019-04-04T16:34:41.935Z,36.30
2019-04-04T16:37:12.797Z,37.40
2019-04-04T16:39:41.721Z,38.10
2019-04-04T16:42:10.753Z,38.20
2019-04-04T16:44:39.783Z,38.30
2019-04-04T16:47:08.588Z,38.80
2019-04-04T16:49:38.382Z,39.10
2019-04-04T16:52:07.501Z,39.10
2019-04-04T16:54:36.448Z,39.00
2019-04-04T16:57:05.449Z,39.40
2019-04-04T16:59:34.331Z,39.60
2019-04-04T17:02:03.112Z,39.60
2019-04-04T17:04:31.989Z,39.70
2019-04-04T17:07:01.063Z,39.60
2019-04-04T17:09:30.092Z,39.70
2019-04-04T17:11:59.053Z,40.10
2019-04-04T17:14:28.013Z,40.20
2019-04-04T17:16:56.989Z,40.50
2019-04-04T17:19:25.827Z,40.20
2019-04-04T17:21:57.375Z,40.50
2019-04-04T17:24:25.423Z,40.80
2019-04-04T17:26:57.262Z,40.90
2019-04-04T17:29:25.423Z,41.50
2019-04-04T17:31:54.227Z,41.70
2019-04-04T17:34:26.302Z,42.00
2019-04-04T17:36:56.368Z,42.00
2019-04-04T17:39:25.700Z,42.00
2019-04-04T17:41:54.563Z,42.50
2019-04-04T17:44:24.016Z,43.20
2019-04-04T17:46:53.075Z,42.70
2019-04-04T17:49:22.168Z,42.70
2019-04-04T17:51:51.372Z,43.20
2019-04-04T17:54:20.301Z,43.40
2019-04-04T17:56:49.263Z,43.50
2019-04-04T17:59:18.581Z,43.80
2019-04-04T18:01:47.512Z,43.90
2019-04-04T18:04:16.629Z,44.40
2019-04-04T18:06:45.520Z,44.20
2019-04-04T18:09:14.645Z,44.60
2019-04-04T18:11:43.631Z,44.60
2019-04-04T18:14:12.734Z,44.90
2019-04-04T18:16:41.809Z,45.10
2019-04-04T18:19:11.042Z,45.40
2019-04-04T18:21:40.007Z,45.50
2019-04-04T18:24:09.121Z,45.00
2019-04-04T18:26:38.364Z,45.10
2019-04-04T18:29:07.284Z,45.80
2019-04-04T18:31:36.142Z,45.90
2019-04-04T18:34:07.535Z,46.10
2019-04-04T18:36:35.980Z,45.80
2019-04-04T18:39:07.272Z,46.10
2019-04-04T18:41:36.160Z,46.40
2019-04-04T18:44:05.359Z,46.10
2019-04-04T18:46:34.220Z,46.20
2019-04-04T18:49:03.023Z,46.10
2019-04-04T18:51:32.017Z,46.20
2019-04-04T18:54:00.951Z,46.40
2019-04-04T18:56:29.927Z,46.40
2019-04-04T18:58:58.868Z,46.80
2019-04-04T19:01:28.049Z,46.70
2019-04-04T19:03:56.945Z,47.00
2019-04-04T19:06:26.022Z,47.00
2019-04-04T19:08:54.817Z,47.10
2019-04-04T19:11:23.664Z,47.50
2019-04-04T19:13:52.492Z,47.40
2019-04-04T19:16:21.525Z,47.40
2019-04-04T19:18:50.481Z,48.00
2019-04-04T19:21:19.622Z,47.60
2019-04-04T19:23:49.704Z,48.00
2019-04-04T19:26:18.740Z,48.00
2019-04-04T19:28:47.709Z,48.30
2019-04-04T19:31:16.638Z,48.60
2019-04-04T19:33:45.483Z,48.40
2019-04-04T19:36:14.464Z,49.20
2019-04-04T19:38:43.609Z,48.50
2019-04-04T19:41:12.612Z,48.40
2019-04-04T19:43:41.680Z,48.50
2019-04-04T19:46:10.632Z,48.40
2019-04-04T19:48:39.540Z,48.40
2019-04-04T19:51:08.522Z,48.60
2019-04-04T19:53:37.597Z,48.40
2019-04-04T19:56:06.630Z,48.50
2019-04-04T19:58:35.527Z,48.40
2019-04-04T20:01:05.364Z,48.70
2019-04-04T20:03:34.439Z,48.80
2019-04-04T20:06:03.399Z,48.80
2019-04-04T20:08:32.237Z,49.20
2019-04-04T20:11:02.525Z,49.10
2019-04-04T20:13:31.717Z,49.30
2019-04-04T20:16:01.261Z,49.70
2019-04-04T20:18:30.162Z,49.30
2019-04-04T20:20:59.938Z,49.60
2019-04-04T20:23:28.821Z,49.50
2019-04-04T20:25:57.697Z,49.70
2019-04-04T20:28:27.807Z,49.80
2019-04-04T20:30:56.778Z,49.80
2019-04-04T20:33:26.222Z,49.90
2019-04-04T20:35:55.190Z,50.10
2019-04-04T20:38:24.120Z,50.10
2019-04-04T20:40:53.000Z,50.20
2019-04-04T20:43:22.003Z,50.30
2019-04-04T20:45:50.831Z,50.30
2019-04-04T20:48:19.661Z,50.50
2019-04-04T20:50:48.453Z,51.40
2019-04-04T20:53:17.387Z,51.00
2019-04-04T20:55:46.292Z,51.00
2019-04-04T20:58:15.188Z,51.10
2019-04-04T21:00:44.205Z,51.40
2019-04-04T21:03:13.216Z,51.40
2019-04-04T21:05:42.136Z,51.70
2019-04-04T21:08:11.029Z,51.70
2019-04-04T21:10:39.816Z,51.90
2019-04-04T21:13:08.658Z,52.10
2019-04-04T21:15:37.535Z,52.00
2019-04-04T21:18:06.409Z,52.50
2019-04-04T21:20:35.231Z,52.50
2019-04-04T21:23:04.541Z,52.70
2019-04-04T21:25:33.513Z,52.80
2019-04-04T21:28:02.429Z,52.80
2019-04-04T21:30:31.469Z,53.10
2019-04-04T21:33:00.482Z,53.10
2019-04-04T21:35:29.302Z,53.10
2019-04-04T21:37:58.267Z,53.10
2019-04-04T21:40:27.124Z,53.40
2019-04-04T21:42:58.125Z,53.50
2019-04-04T21:45:26.993Z,53.80
2019-04-04T21:47:55.875Z,53.90
2019-04-04T21:50:24.945Z,53.90
2019-04-04T21:52:53.764Z,54.20
2019-04-04T21:55:22.764Z,54.30
2019-04-04T21:57:51.665Z,54.50
2019-04-04T22:00:21.513Z,54.40
2019-04-04T22:02:50.430Z,54.50
2019-04-04T22:05:19.322Z,54.50
2019-04-04T22:07:48.581Z,54.50
2019-04-04T22:10:17.662Z,54.50
2019-04-04T22:12:46.718Z,54.70
2019-04-04T22:15:15.771Z,54.80
2019-04-04T22:17:44.625Z,54.80
2019-04-04T22:20:14.929Z,54.90
2019-04-04T22:22:43.739Z,54.90
2019-04-04T22:25:12.596Z,55.10
2019-04-04T22:27:41.564Z,55.20
2019-04-04T22:30:11.273Z,55.20
2019-04-04T22:32:40.188Z,55.30
2019-04-04T22:35:09.712Z,55.40
2019-04-04T22:37:38.496Z,55.50
2019-04-04T22:40:08.320Z,55.50
2019-04-04T22:42:37.113Z,55.60
2019-04-04T22:45:06.495Z,55.50
2019-04-04T22:47:35.339Z,55.70
2019-04-04T22:50:04.309Z,55.90
2019-04-04T22:52:33.158Z,56.00
2019-04-04T22:55:02.095Z,56.00
2019-04-04T22:57:30.996Z,56.10
2019-04-04T22:59:59.966Z,56.30
2019-04-04T23:02:28.843Z,56.50
2019-04-04T23:04:57.677Z,56.60
2019-04-04T23:07:26.556Z,56.70
2019-04-04T23:09:55.370Z,56.70
2019-04-04T23:12:24.281Z,57.00
2019-04-04T23:14:53.127Z,57.10
2019-04-04T23:17:22.091Z,57.00
2019-04-04T23:19:50.945Z,57.10
2019-04-04T23:22:19.827Z,57.10
2019-04-04T23:24:48.657Z,57.50
2019-04-04T23:27:17.587Z,57.30
2019-04-04T23:29:46.440Z,57.40
2019-04-04T23:32:15.360Z,57.70
2019-04-04T23:34:44.219Z,58.00
2019-04-04T23:37:13.011Z,58.00
2019-04-04T23:39:41.824Z,58.10
2019-04-04T23:42:10.652Z,58.40
2019-04-04T23:44:39.531Z,58.30
2019-04-04T23:47:08.460Z,58.50
2019-04-04T23:49:37.675Z,58.60
2019-04-04T23:52:06.466Z,58.60
2019-04-04T23:54:35.702Z,58.60
2019-04-04T23:57:05.411Z,58.90
2019-04-04T23:59:34.313Z,59.00
